sensor_id;sensor_type;location;lat;lon;timestamp;P1;durP1;ratioP1;P2;durP2;ratioP2
16543;SDS011;8384;47.996;7.786;2023-07-13T00:02:06;1.80;;;1.30;;
16543;SDS011;8384;47.996;7.786;2023-07-13T00:04:32;2.23;;;1.50;;
16543;SDS011;8384;47.996;7.786;2023-07-13T00:06:57;2.20;;;1.30;;
16543;SDS011;8384;47.996;7.786;2023-07-13T00:09:22;2.20;;;1.60;;
16543;SDS011;8384;47.996;7.786;2023-07-13T00:11:50;2.37;;;1.50;;
16543;SDS011;8384;47.996;7.786;2023-07-13T00:14:16;1.90;;;1.30;;
16543;SDS011;8384;47.996;7.786;2023-07-13T00:16:42;4.47;;;1.43;;
16543;SDS011;8384;47.996;7.786;2023-07-13T00:19:11;3.10;;;1.37;;
16543;SDS011;8384;47.996;7.786;2023-07-13T00:21:37;1.30;;;1.20;;
16543;SDS011;8384;47.996;7.786;2023-07-13T00:24:03;1.93;;;1.60;;
16543;SDS011;8384;47.996;7.786;2023-07-13T00:26:29;1.93;;;1.03;;
16543;SDS011;8384;47.996;7.786;2023-07-13T00:28:54;2.80;;;1.57;;
16543;SDS011;8384;47.996;7.786;2023-07-13T00:31:19;1.30;;;1.20;;
16543;SDS011;8384;47.996;7.786;2023-07-13T00:33:45;3.73;;;1.63;;
16543;SDS011;8384;47.996;7.786;2023-07-13T00:36:10;3.07;;;1.57;;
16543;SDS011;8384;47.996;7.786;2023-07-13T00:38:36;3.23;;;1.40;;
16543;SDS011;8384;47.996;7.786;2023-07-13T00:41:02;2.07;;;1.43;;
16543;SDS011;8384;47.996;7.786;2023-07-13T00:43:28;4.97;;;1.70;;
16543;SDS011;8384;47.996;7.786;2023-07-13T00:48:24;2.83;;;1.67;;
16543;SDS011;8384;47.996;7.786;2023-07-13T00:50:53;5.00;;;1.53;;
16543;SDS011;8384;47.996;7.786;2023-07-13T00:53:22;1.90;;;1.40;;
16543;SDS011;8384;47.996;7.786;2023-07-13T00:55:51;3.20;;;1.60;;
16543;SDS011;8384;47.996;7.786;2023-07-13T00:58:18;3.47;;;1.40;;
16543;SDS011;8384;47.996;7.786;2023-07-13T01:00:44;2.43;;;2.13;;
16543;SDS011;8384;47.996;7.786;2023-07-13T01:03:11;3.90;;;1.77;;
16543;SDS011;8384;47.996;7.786;2023-07-13T01:05:37;3.60;;;2.00;;
16543;SDS011;8384;47.996;7.786;2023-07-13T01:08:04;2.73;;;2.17;;
16543;SDS011;8384;47.996;7.786;2023-07-13T01:10:30;2.70;;;1.70;;
16543;SDS011;8384;47.996;7.786;2023-07-13T01:13:03;2.63;;;1.80;;
16543;SDS011;8384;47.996;7.786;2023-07-13T01:18:25;5.87;;;1.80;;
16543;SDS011;8384;47.996;7.786;2023-07-13T01:20:55;3.43;;;1.40;;
16543;SDS011;8384;47.996;7.786;2023-07-13T01:23:25;3.17;;;1.60;;
16543;SDS011;8384;47.996;7.786;2023-07-13T01:25:52;2.90;;;1.73;;
16543;SDS011;8384;47.996;7.786;2023-07-13T01:28:18;3.17;;;1.60;;
16543;SDS011;8384;47.996;7.786;2023-07-13T01:30:44;4.57;;;1.50;;
16543;SDS011;8384;47.996;7.786;2023-07-13T01:33:14;3.13;;;1.57;;
16543;SDS011;8384;47.996;7.786;2023-07-13T01:35:41;4.13;;;1.60;;
16543;SDS011;8384;47.996;7.786;2023-07-13T01:38:07;3.17;;;1.33;;
16543;SDS011;8384;47.996;7.786;2023-07-13T01:40:33;1.80;;;1.13;;
16543;SDS011;8384;47.996;7.786;2023-07-13T01:42:58;2.13;;;1.20;;
16543;SDS011;8384;47.996;7.786;2023-07-13T01:45:24;1.60;;;1.30;;
16543;SDS011;8384;47.996;7.786;2023-07-13T01:47:49;4.13;;;1.60;;
16543;SDS011;8384;47.996;7.786;2023-07-13T01:50:15;3.00;;;1.40;;
16543;SDS011;8384;47.996;7.786;2023-07-13T01:52:40;2.23;;;1.80;;
16543;SDS011;8384;47.996;7.786;2023-07-13T01:55:05;3.40;;;1.40;;
16543;SDS011;8384;47.996;7.786;2023-07-13T01:57:31;2.40;;;1.20;;
16543;SDS011;8384;47.996;7.786;2023-07-13T01:59:56;2.53;;;1.20;;
16543;SDS011;8384;47.996;7.786;2023-07-13T02:02:22;2.37;;;1.57;;
16543;SDS011;8384;47.996;7.786;2023-07-13T02:04:47;2.43;;;1.53;;
16543;SDS011;8384;47.996;7.786;2023-07-13T02:07:12;3.47;;;1.80;;
16543;SDS011;8384;47.996;7.786;2023-07-13T02:09:37;4.10;;;1.50;;
16543;SDS011;8384;47.996;7.786;2023-07-13T02:12:03;5.43;;;1.90;;
16543;SDS011;8384;47.996;7.786;2023-07-13T02:14:28;3.03;;;1.47;;
16543;SDS011;8384;47.996;7.786;2023-07-13T02:16:54;2.80;;;1.40;;
16543;SDS011;8384;47.996;7.786;2023-07-13T02:19:19;3.40;;;1.60;;
16543;SDS011;8384;47.996;7.786;2023-07-13T02:21:44;2.23;;;1.43;;
16543;SDS011;8384;47.996;7.786;2023-07-13T02:24:09;1.80;;;1.33;;
16543;SDS011;8384;47.996;7.786;2023-07-13T02:26:40;1.80;;;1.33;;
16543;SDS011;8384;47.996;7.786;2023-07-13T02:29:05;3.13;;;1.30;;
16543;SDS011;8384;47.996;7.786;2023-07-13T02:31:30;3.80;;;1.40;;
16543;SDS011;8384;47.996;7.786;2023-07-13T02:33:55;2.13;;;1.27;;
16543;SDS011;8384;47.996;7.786;2023-07-13T02:36:21;1.97;;;1.20;;
16543;SDS011;8384;47.996;7.786;2023-07-13T02:38:46;2.53;;;1.70;;
16543;SDS011;8384;47.996;7.786;2023-07-13T02:41:11;3.47;;;1.50;;
16543;SDS011;8384;47.996;7.786;2023-07-13T02:43:37;2.63;;;1.52;;
16543;SDS011;8384;47.996;7.786;2023-07-13T02:46:03;3.13;;;1.60;;
16543;SDS011;8384;47.996;7.786;2023-07-13T02:48:34;1.88;;;1.40;;
16543;SDS011;8384;47.996;7.786;2023-07-13T02:51:00;3.77;;;1.60;;
16543;SDS011;8384;47.996;7.786;2023-07-13T02:53:26;1.50;;;1.40;;
16543;SDS011;8384;47.996;7.786;2023-07-13T02:55:51;2.13;;;1.60;;
16543;SDS011;8384;47.996;7.786;2023-07-13T02:58:17;2.17;;;1.67;;
16543;SDS011;8384;47.996;7.786;2023-07-13T03:00:42;2.07;;;1.57;;
16543;SDS011;8384;47.996;7.786;2023-07-13T03:03:08;1.90;;;1.40;;
16543;SDS011;8384;47.996;7.786;2023-07-13T03:05:34;4.20;;;1.70;;
16543;SDS011;8384;47.996;7.786;2023-07-13T03:08:01;3.63;;;1.70;;
16543;SDS011;8384;47.996;7.786;2023-07-13T03:10:28;2.70;;;1.60;;
16543;SDS011;8384;47.996;7.786;2023-07-13T03:12:53;1.87;;;1.57;;
16543;SDS011;8384;47.996;7.786;2023-07-13T03:15:18;3.87;;;1.80;;
16543;SDS011;8384;47.996;7.786;2023-07-13T03:17:44;1.97;;;1.50;;
16543;SDS011;8384;47.996;7.786;2023-07-13T03:20:09;3.33;;;1.80;;
16543;SDS011;8384;47.996;7.786;2023-07-13T03:22:35;2.53;;;1.43;;
16543;SDS011;8384;47.996;7.786;2023-07-13T03:25:00;7.03;;;2.00;;
16543;SDS011;8384;47.996;7.786;2023-07-13T03:27:25;2.73;;;1.60;;
16543;SDS011;8384;47.996;7.786;2023-07-13T03:29:50;3.77;;;1.80;;
16543;SDS011;8384;47.996;7.786;2023-07-13T03:32:16;2.53;;;1.33;;
16543;SDS011;8384;47.996;7.786;2023-07-13T03:34:41;2.43;;;1.37;;
16543;SDS011;8384;47.996;7.786;2023-07-13T03:37:06;3.93;;;1.57;;
16543;SDS011;8384;47.996;7.786;2023-07-13T03:39:31;4.83;;;2.20;;
16543;SDS011;8384;47.996;7.786;2023-07-13T03:41:57;2.27;;;1.60;;
16543;SDS011;8384;47.996;7.786;2023-07-13T03:44:22;2.73;;;1.70;;
16543;SDS011;8384;47.996;7.786;2023-07-13T03:46:47;2.30;;;1.60;;
16543;SDS011;8384;47.996;7.786;2023-07-13T03:49:12;3.43;;;1.80;;
16543;SDS011;8384;47.996;7.786;2023-07-13T03:51:38;2.40;;;1.50;;
16543;SDS011;8384;47.996;7.786;2023-07-13T03:54:03;1.97;;;1.73;;
16543;SDS011;8384;47.996;7.786;2023-07-13T03:56:29;5.53;;;1.70;;
16543;SDS011;8384;47.996;7.786;2023-07-13T03:58:55;3.70;;;1.90;;
16543;SDS011;8384;47.996;7.786;2023-07-13T04:01:22;3.37;;;1.60;;
16543;SDS011;8384;47.996;7.786;2023-07-13T04:03:49;3.37;;;1.70;;
16543;SDS011;8384;47.996;7.786;2023-07-13T04:06:16;5.70;;;2.03;;
16543;SDS011;8384;47.996;7.786;2023-07-13T04:08:48;4.30;;;1.63;;
16543;SDS011;8384;47.996;7.786;2023-07-13T04:11:15;4.73;;;1.87;;
16543;SDS011;8384;47.996;7.786;2023-07-13T04:13:41;1.50;;;1.40;;
16543;SDS011;8384;47.996;7.786;2023-07-13T04:16:06;1.77;;;1.60;;
16543;SDS011;8384;47.996;7.786;2023-07-13T04:18:31;2.30;;;1.80;;
16543;SDS011;8384;47.996;7.786;2023-07-13T04:20:57;1.90;;;1.70;;
16543;SDS011;8384;47.996;7.786;2023-07-13T04:23:22;4.53;;;1.67;;
16543;SDS011;8384;47.996;7.786;2023-07-13T04:25:47;3.93;;;1.60;;
16543;SDS011;8384;47.996;7.786;2023-07-13T04:28:17;2.07;;;1.60;;
16543;SDS011;8384;47.996;7.786;2023-07-13T04:30:44;3.77;;;1.80;;
16543;SDS011;8384;47.996;7.786;2023-07-13T04:33:09;2.37;;;1.37;;
16543;SDS011;8384;47.996;7.786;2023-07-13T04:35:35;5.17;;;1.90;;
16543;SDS011;8384;47.996;7.786;2023-07-13T04:38:01;2.53;;;1.80;;
16543;SDS011;8384;47.996;7.786;2023-07-13T04:40:27;2.13;;;1.90;;
16543;SDS011;8384;47.996;7.786;2023-07-13T04:42:53;2.53;;;1.57;;
16543;SDS011;8384;47.996;7.786;2023-07-13T04:45:18;3.70;;;1.90;;
16543;SDS011;8384;47.996;7.786;2023-07-13T04:47:43;3.73;;;1.97;;
16543;SDS011;8384;47.996;7.786;2023-07-13T04:50:09;2.33;;;2.07;;
16543;SDS011;8384;47.996;7.786;2023-07-13T04:52:35;2.20;;;2.00;;
16543;SDS011;8384;47.996;7.786;2023-07-13T04:55:01;2.30;;;2.10;;
16543;SDS011;8384;47.996;7.786;2023-07-13T04:57:27;2.80;;;1.73;;
16543;SDS011;8384;47.996;7.786;2023-07-13T04:59:53;2.93;;;1.70;;
16543;SDS011;8384;47.996;7.786;2023-07-13T05:02:20;4.23;;;1.73;;
16543;SDS011;8384;47.996;7.786;2023-07-13T05:04:46;3.53;;;1.70;;
16543;SDS011;8384;47.996;7.786;2023-07-13T05:07:12;2.80;;;1.50;;
16543;SDS011;8384;47.996;7.786;2023-07-13T05:09:38;2.80;;;1.47;;
16543;SDS011;8384;47.996;7.786;2023-07-13T05:12:05;4.27;;;1.50;;
16543;SDS011;8384;47.996;7.786;2023-07-13T05:14:31;2.73;;;1.63;;
16543;SDS011;8384;47.996;7.786;2023-07-13T05:16:56;3.53;;;1.80;;
16543;SDS011;8384;47.996;7.786;2023-07-13T05:19:22;2.33;;;1.57;;
16543;SDS011;8384;47.996;7.786;2023-07-13T05:21:47;3.10;;;1.90;;
16543;SDS011;8384;47.996;7.786;2023-07-13T05:24:13;2.90;;;1.87;;
16543;SDS011;8384;47.996;7.786;2023-07-13T05:26:38;2.80;;;1.90;;
16543;SDS011;8384;47.996;7.786;2023-07-13T05:29:03;3.53;;;1.80;;
16543;SDS011;8384;47.996;7.786;2023-07-13T05:31:28;2.57;;;1.60;;
16543;SDS011;8384;47.996;7.786;2023-07-13T05:33:54;4.90;;;1.70;;
16543;SDS011;8384;47.996;7.786;2023-07-13T05:36:19;4.50;;;1.73;;
16543;SDS011;8384;47.996;7.786;2023-07-13T05:38:44;3.27;;;2.00;;
16543;SDS011;8384;47.996;7.786;2023-07-13T05:41:09;2.80;;;1.60;;
16543;SDS011;8384;47.996;7.786;2023-07-13T05:43:35;1.40;;;1.30;;
16543;SDS011;8384;47.996;7.786;2023-07-13T05:46:00;2.73;;;1.90;;
16543;SDS011;8384;47.996;7.786;2023-07-13T05:48:25;3.53;;;1.73;;
16543;SDS011;8384;47.996;7.786;2023-07-13T05:50:51;2.83;;;1.50;;
16543;SDS011;8384;47.996;7.786;2023-07-13T05:53:16;2.57;;;1.70;;
16543;SDS011;8384;47.996;7.786;2023-07-13T05:55:42;3.30;;;1.40;;
16543;SDS011;8384;47.996;7.786;2023-07-13T05:58:08;3.87;;;1.70;;
16543;SDS011;8384;47.996;7.786;2023-07-13T06:00:34;3.53;;;1.90;;
16543;SDS011;8384;47.996;7.786;2023-07-13T06:02:59;2.40;;;1.60;;
16543;SDS011;8384;47.996;7.786;2023-07-13T06:05:24;2.83;;;1.43;;
16543;SDS011;8384;47.996;7.786;2023-07-13T06:07:49;2.47;;;1.60;;
16543;SDS011;8384;47.996;7.786;2023-07-13T06:10:15;2.83;;;1.30;;
16543;SDS011;8384;47.996;7.786;2023-07-13T06:12:40;2.13;;;1.40;;
16543;SDS011;8384;47.996;7.786;2023-07-13T06:15:05;2.60;;;1.50;;
16543;SDS011;8384;47.996;7.786;2023-07-13T06:17:31;3.33;;;1.67;;
16543;SDS011;8384;47.996;7.786;2023-07-13T06:19:57;3.13;;;1.30;;
16543;SDS011;8384;47.996;7.786;2023-07-13T06:22:22;2.70;;;1.60;;
16543;SDS011;8384;47.996;7.786;2023-07-13T06:24:47;3.23;;;1.70;;
16543;SDS011;8384;47.996;7.786;2023-07-13T06:27:12;2.47;;;1.70;;
16543;SDS011;8384;47.996;7.786;2023-07-13T06:29:38;2.40;;;1.50;;
16543;SDS011;8384;47.996;7.786;2023-07-13T06:32:04;3.33;;;1.60;;
16543;SDS011;8384;47.996;7.786;2023-07-13T06:34:30;3.30;;;1.70;;
16543;SDS011;8384;47.996;7.786;2023-07-13T06:36:55;3.17;;;1.70;;
16543;SDS011;8384;47.996;7.786;2023-07-13T06:39:20;2.77;;;1.60;;
16543;SDS011;8384;47.996;7.786;2023-07-13T06:41:46;3.97;;;1.90;;
16543;SDS011;8384;47.996;7.786;2023-07-13T06:44:11;2.30;;;1.90;;
16543;SDS011;8384;47.996;7.786;2023-07-13T06:46:37;3.97;;;2.20;;
16543;SDS011;8384;47.996;7.786;2023-07-13T06:49:02;3.53;;;2.23;;
16543;SDS011;8384;47.996;7.786;2023-07-13T06:51:27;5.40;;;2.37;;
16543;SDS011;8384;47.996;7.786;2023-07-13T06:53:52;1.93;;;1.73;;
16543;SDS011;8384;47.996;7.786;2023-07-13T06:56:19;2.53;;;1.80;;
16543;SDS011;8384;47.996;7.786;2023-07-13T06:58:44;4.67;;;1.83;;
16543;SDS011;8384;47.996;7.786;2023-07-13T07:01:10;3.47;;;1.80;;
16543;SDS011;8384;47.996;7.786;2023-07-13T07:03:35;2.40;;;1.83;;
16543;SDS011;8384;47.996;7.786;2023-07-13T07:06:16;6.97;;;1.90;;
16543;SDS011;8384;47.996;7.786;2023-07-13T07:08:43;3.47;;;1.60;;
16543;SDS011;8384;47.996;7.786;2023-07-13T07:11:14;2.47;;;1.60;;
16543;SDS011;8384;47.996;7.786;2023-07-13T07:13:42;4.27;;;1.43;;
16543;SDS011;8384;47.996;7.786;2023-07-13T07:16:07;5.33;;;1.80;;
16543;SDS011;8384;47.996;7.786;2023-07-13T07:18:33;4.53;;;1.50;;
16543;SDS011;8384;47.996;7.786;2023-07-13T07:20:59;3.37;;;1.53;;
16543;SDS011;8384;47.996;7.786;2023-07-13T07:23:24;3.40;;;1.73;;
16543;SDS011;8384;47.996;7.786;2023-07-13T07:25:49;2.67;;;1.60;;
16543;SDS011;8384;47.996;7.786;2023-07-13T07:28:16;3.50;;;1.80;;
16543;SDS011;8384;47.996;7.786;2023-07-13T07:30:43;3.73;;;1.70;;
16543;SDS011;8384;47.996;7.786;2023-07-13T07:33:12;5.60;;;1.43;;
16543;SDS011;8384;47.996;7.786;2023-07-13T07:35:37;3.93;;;1.80;;
16543;SDS011;8384;47.996;7.786;2023-07-13T07:38:03;3.83;;;1.80;;
16543;SDS011;8384;47.996;7.786;2023-07-13T07:40:28;2.90;;;1.43;;
16543;SDS011;8384;47.996;7.786;2023-07-13T07:42:53;4.00;;;1.70;;
16543;SDS011;8384;47.996;7.786;2023-07-13T07:45:20;1.83;;;1.47;;
16543;SDS011;8384;47.996;7.786;2023-07-13T07:47:46;2.40;;;1.57;;
16543;SDS011;8384;47.996;7.786;2023-07-13T07:50:11;3.37;;;1.47;;
16543;SDS011;8384;47.996;7.786;2023-07-13T07:52:37;2.07;;;1.50;;
16543;SDS011;8384;47.996;7.786;2023-07-13T07:55:04;4.20;;;1.83;;
16543;SDS011;8384;47.996;7.786;2023-07-13T07:57:30;4.10;;;1.93;;
16543;SDS011;8384;47.996;7.786;2023-07-13T07:59:55;2.83;;;1.47;;
16543;SDS011;8384;47.996;7.786;2023-07-13T08:02:21;5.53;;;1.60;;
16543;SDS011;8384;47.996;7.786;2023-07-13T08:04:46;4.70;;;1.73;;
16543;SDS011;8384;47.996;7.786;2023-07-13T08:07:11;1.87;;;1.30;;
16543;SDS011;8384;47.996;7.786;2023-07-13T08:09:36;3.60;;;1.53;;
16543;SDS011;8384;47.996;7.786;2023-07-13T08:12:02;4.63;;;1.50;;
16543;SDS011;8384;47.996;7.786;2023-07-13T08:14:27;3.40;;;1.40;;
16543;SDS011;8384;47.996;7.786;2023-07-13T08:16:52;1.60;;;1.30;;
16543;SDS011;8384;47.996;7.786;2023-07-13T08:19:18;4.13;;;1.73;;
16543;SDS011;8384;47.996;7.786;2023-07-13T08:21:44;3.67;;;1.23;;
16543;SDS011;8384;47.996;7.786;2023-07-13T08:24:09;2.40;;;1.40;;
16543;SDS011;8384;47.996;7.786;2023-07-13T08:26:34;2.57;;;1.20;;
16543;SDS011;8384;47.996;7.786;2023-07-13T08:29:00;3.00;;;1.67;;
16543;SDS011;8384;47.996;7.786;2023-07-13T08:31:25;3.27;;;1.30;;
16543;SDS011;8384;47.996;7.786;2023-07-13T08:33:51;2.23;;;1.40;;
16543;SDS011;8384;47.996;7.786;2023-07-13T08:36:16;3.07;;;1.50;;
16543;SDS011;8384;47.996;7.786;2023-07-13T08:38:41;2.47;;;1.40;;
16543;SDS011;8384;47.996;7.786;2023-07-13T08:41:11;3.03;;;1.60;;
16543;SDS011;8384;47.996;7.786;2023-07-13T08:43:38;2.83;;;1.33;;
16543;SDS011;8384;47.996;7.786;2023-07-13T08:49:02;2.73;;;1.33;;
16543;SDS011;8384;47.996;7.786;2023-07-13T08:51:44;2.73;;;1.47;;
16543;SDS011;8384;47.996;7.786;2023-07-13T08:56:48;3.83;;;1.30;;
16543;SDS011;8384;47.996;7.786;2023-07-13T08:59:18;2.90;;;1.43;;
16543;SDS011;8384;47.996;7.786;2023-07-13T09:04:45;5.40;;;1.77;;
16543;SDS011;8384;47.996;7.786;2023-07-13T09:10:30;3.67;;;1.60;;
16543;SDS011;8384;47.996;7.786;2023-07-13T09:15:40;3.00;;;1.30;;
16543;SDS011;8384;47.996;7.786;2023-07-13T09:20:57;5.20;;;1.70;;
16543;SDS011;8384;47.996;7.786;2023-07-13T09:23:28;2.40;;;1.60;;
16543;SDS011;8384;47.996;7.786;2023-07-13T09:26:03;5.83;;;1.77;;
16543;SDS011;8384;47.996;7.786;2023-07-13T09:28:36;3.07;;;1.60;;
16543;SDS011;8384;47.996;7.786;2023-07-13T09:33:39;3.73;;;1.30;;
16543;SDS011;8384;47.996;7.786;2023-07-13T09:36:16;2.77;;;1.50;;
16543;SDS011;8384;47.996;7.786;2023-07-13T09:38:45;3.60;;;1.57;;
16543;SDS011;8384;47.996;7.786;2023-07-13T09:46:34;4.80;;;1.57;;
16543;SDS011;8384;47.996;7.786;2023-07-13T09:49:00;2.60;;;1.47;;
16543;SDS011;8384;47.996;7.786;2023-07-13T09:51:25;3.57;;;1.33;;
16543;SDS011;8384;47.996;7.786;2023-07-13T09:53:51;3.53;;;1.37;;
16543;SDS011;8384;47.996;7.786;2023-07-13T09:56:22;9.37;;;1.73;;
16543;SDS011;8384;47.996;7.786;2023-07-13T09:58:49;3.20;;;1.43;;
16543;SDS011;8384;47.996;7.786;2023-07-13T10:01:15;3.47;;;1.50;;
16543;SDS011;8384;47.996;7.786;2023-07-13T10:03:51;2.80;;;1.60;;
16543;SDS011;8384;47.996;7.786;2023-07-13T10:06:19;2.00;;;1.30;;
16543;SDS011;8384;47.996;7.786;2023-07-13T10:08:49;6.70;;;1.67;;
16543;SDS011;8384;47.996;7.786;2023-07-13T10:11:20;2.27;;;1.60;;
16543;SDS011;8384;47.996;7.786;2023-07-13T10:13:55;1.43;;;1.07;;
16543;SDS011;8384;47.996;7.786;2023-07-13T10:16:31;3.87;;;1.20;;
16543;SDS011;8384;47.996;7.786;2023-07-13T10:18:59;3.17;;;1.50;;
16543;SDS011;8384;47.996;7.786;2023-07-13T10:21:32;2.77;;;1.20;;
16543;SDS011;8384;47.996;7.786;2023-07-13T10:27:10;2.37;;;1.17;;
16543;SDS011;8384;47.996;7.786;2023-07-13T10:32:34;1.93;;;1.20;;
16543;SDS011;8384;47.996;7.786;2023-07-13T10:35:00;2.43;;;0.97;;
16543;SDS011;8384;47.996;7.786;2023-07-13T10:37:29;2.97;;;1.30;;
16543;SDS011;8384;47.996;7.786;2023-07-13T10:40:13;2.60;;;1.17;;
16543;SDS011;8384;47.996;7.786;2023-07-13T10:42:42;3.40;;;1.23;;
16543;SDS011;8384;47.996;7.786;2023-07-13T10:45:13;1.20;;;0.90;;
16543;SDS011;8384;47.996;7.786;2023-07-13T10:47:40;1.00;;;0.90;;
16543;SDS011;8384;47.996;7.786;2023-07-13T10:50:08;4.00;;;1.13;;
16543;SDS011;8384;47.996;7.786;2023-07-13T10:52:50;1.87;;;1.20;;
16543;SDS011;8384;47.996;7.786;2023-07-13T11:01:08;3.87;;;1.30;;
16543;SDS011;8384;47.996;7.786;2023-07-13T11:06:12;3.97;;;1.10;;
16543;SDS011;8384;47.996;7.786;2023-07-13T11:18:48;4.80;;;1.37;;
16543;SDS011;8384;47.996;7.786;2023-07-13T11:21:16;2.13;;;1.07;;
16543;SDS011;8384;47.996;7.786;2023-07-13T11:23:54;2.30;;;1.30;;
16543;SDS011;8384;47.996;7.786;2023-07-13T11:29:25;2.10;;;1.40;;
16543;SDS011;8384;47.996;7.786;2023-07-13T11:32:09;3.67;;;1.33;;
16543;SDS011;8384;47.996;7.786;2023-07-13T11:34:47;3.00;;;1.23;;
16543;SDS011;8384;47.996;7.786;2023-07-13T11:37:13;3.27;;;1.40;;
16543;SDS011;8384;47.996;7.786;2023-07-13T11:39:42;3.43;;;1.27;;
16543;SDS011;8384;47.996;7.786;2023-07-13T11:42:10;3.80;;;1.43;;
16543;SDS011;8384;47.996;7.786;2023-07-13T11:44:47;3.00;;;1.37;;
16543;SDS011;8384;47.996;7.786;2023-07-13T11:47:17;2.67;;;1.20;;
16543;SDS011;8384;47.996;7.786;2023-07-13T11:49:48;4.87;;;1.73;;
16543;SDS011;8384;47.996;7.786;2023-07-13T11:52:15;2.37;;;1.17;;
16543;SDS011;8384;47.996;7.786;2023-07-13T11:54:48;3.23;;;1.20;;
16543;SDS011;8384;47.996;7.786;2023-07-13T11:57:30;2.43;;;1.13;;
16543;SDS011;8384;47.996;7.786;2023-07-13T11:59:59;3.43;;;1.57;;
16543;SDS011;8384;47.996;7.786;2023-07-13T12:02:31;4.73;;;1.50;;
16543;SDS011;8384;47.996;7.786;2023-07-13T12:04:59;1.67;;;1.23;;
16543;SDS011;8384;47.996;7.786;2023-07-13T12:07:28;1.83;;;1.10;;
16543;SDS011;8384;47.996;7.786;2023-07-13T12:10:00;1.57;;;1.00;;
16543;SDS011;8384;47.996;7.786;2023-07-13T12:12:36;1.77;;;1.10;;
16543;SDS011;8384;47.996;7.786;2023-07-13T12:15:05;3.10;;;1.30;;
16543;SDS011;8384;47.996;7.786;2023-07-13T12:17:33;2.10;;;1.20;;
16543;SDS011;8384;47.996;7.786;2023-07-13T12:19:59;2.53;;;1.13;;
16543;SDS011;8384;47.996;7.786;2023-07-13T12:22:25;6.03;;;1.20;;
16543;SDS011;8384;47.996;7.786;2023-07-13T12:24:52;1.97;;;1.10;;
16543;SDS011;8384;47.996;7.786;2023-07-13T12:27:22;3.70;;;1.20;;
16543;SDS011;8384;47.996;7.786;2023-07-13T12:29:57;2.73;;;1.30;;
16543;SDS011;8384;47.996;7.786;2023-07-13T12:32:24;2.87;;;1.00;;
16543;SDS011;8384;47.996;7.786;2023-07-13T12:34:51;1.53;;;1.00;;
16543;SDS011;8384;47.996;7.786;2023-07-13T12:37:27;2.43;;;1.00;;
16543;SDS011;8384;47.996;7.786;2023-07-13T12:39:53;2.70;;;1.23;;
16543;SDS011;8384;47.996;7.786;2023-07-13T12:42:25;4.23;;;1.20;;
16543;SDS011;8384;47.996;7.786;2023-07-13T12:44:53;2.60;;;1.00;;
16543;SDS011;8384;47.996;7.786;2023-07-13T12:47:22;1.17;;;1.07;;
16543;SDS011;8384;47.996;7.786;2023-07-13T12:49:49;2.40;;;1.10;;
16543;SDS011;8384;47.996;7.786;2023-07-13T12:52:22;1.53;;;1.10;;
16543;SDS011;8384;47.996;7.786;2023-07-13T12:54:53;4.13;;;1.20;;
16543;SDS011;8384;47.996;7.786;2023-07-13T12:57:23;3.57;;;1.30;;
16543;SDS011;8384;47.996;7.786;2023-07-13T12:59:51;1.80;;;1.30;;
16543;SDS011;8384;47.996;7.786;2023-07-13T13:02:39;1.30;;;1.03;;
16543;SDS011;8384;47.996;7.786;2023-07-13T13:05:03;1.70;;;1.10;;
16543;SDS011;8384;47.996;7.786;2023-07-13T13:07:30;1.73;;;1.10;;
16543;SDS011;8384;47.996;7.786;2023-07-13T13:09:55;2.17;;;1.10;;
16543;SDS011;8384;47.996;7.786;2023-07-13T13:12:21;1.60;;;1.17;;
16543;SDS011;8384;47.996;7.786;2023-07-13T13:14:49;2.40;;;1.30;;
16543;SDS011;8384;47.996;7.786;2023-07-13T13:17:18;2.50;;;1.00;;
16543;SDS011;8384;47.996;7.786;2023-07-13T13:19:46;3.53;;;1.20;;
16543;SDS011;8384;47.996;7.786;2023-07-13T13:22:12;3.90;;;1.30;;
16543;SDS011;8384;47.996;7.786;2023-07-13T13:24:37;1.97;;;1.20;;
16543;SDS011;8384;47.996;7.786;2023-07-13T13:27:02;2.40;;;1.03;;
16543;SDS011;8384;47.996;7.786;2023-07-13T13:29:28;2.23;;;1.50;;
16543;SDS011;8384;47.996;7.786;2023-07-13T13:31:56;1.20;;;1.00;;
16543;SDS011;8384;47.996;7.786;2023-07-13T13:34:22;2.23;;;1.03;;
16543;SDS011;8384;47.996;7.786;2023-07-13T13:36:49;2.73;;;0.93;;
16543;SDS011;8384;47.996;7.786;2023-07-13T13:41:53;1.40;;;1.30;;
16543;SDS011;8384;47.996;7.786;2023-07-13T13:44:19;1.90;;;1.17;;
16543;SDS011;8384;47.996;7.786;2023-07-13T13:46:46;4.30;;;1.07;;
16543;SDS011;8384;47.996;7.786;2023-07-13T13:49:17;4.60;;;1.33;;
16543;SDS011;8384;47.996;7.786;2023-07-13T13:51:44;2.07;;;1.20;;
16543;SDS011;8384;47.996;7.786;2023-07-13T13:54:10;3.03;;;1.30;;
16543;SDS011;8384;47.996;7.786;2023-07-13T13:56:37;1.67;;;1.20;;
16543;SDS011;8384;47.996;7.786;2023-07-13T13:59:03;3.93;;;1.40;;
16543;SDS011;8384;47.996;7.786;2023-07-13T14:01:29;3.57;;;1.40;;
16543;SDS011;8384;47.996;7.786;2023-07-13T14:03:56;2.90;;;1.20;;
16543;SDS011;8384;47.996;7.786;2023-07-13T14:06:21;1.80;;;1.10;;
16543;SDS011;8384;47.996;7.786;2023-07-13T14:08:46;2.90;;;1.20;;
16543;SDS011;8384;47.996;7.786;2023-07-13T14:11:15;1.63;;;1.30;;
16543;SDS011;8384;47.996;7.786;2023-07-13T14:13:44;1.50;;;1.17;;
16543;SDS011;8384;47.996;7.786;2023-07-13T14:16:14;3.27;;;1.23;;
16543;SDS011;8384;47.996;7.786;2023-07-13T14:18:42;3.60;;;1.20;;
16543;SDS011;8384;47.996;7.786;2023-07-13T14:21:16;2.73;;;1.10;;
16543;SDS011;8384;47.996;7.786;2023-07-13T14:23:43;2.60;;;1.00;;
16543;SDS011;8384;47.996;7.786;2023-07-13T14:26:11;2.67;;;1.40;;
16543;SDS011;8384;47.996;7.786;2023-07-13T14:28:38;2.07;;;1.17;;
16543;SDS011;8384;47.996;7.786;2023-07-13T14:31:08;2.00;;;1.50;;
16543;SDS011;8384;47.996;7.786;2023-07-13T14:33:34;2.43;;;1.30;;
16543;SDS011;8384;47.996;7.786;2023-07-13T14:35:59;2.43;;;1.10;;
16543;SDS011;8384;47.996;7.786;2023-07-13T14:38:24;2.43;;;1.30;;
16543;SDS011;8384;47.996;7.786;2023-07-13T14:40:49;1.40;;;1.30;;
16543;SDS011;8384;47.996;7.786;2023-07-13T14:43:15;2.20;;;1.10;;
16543;SDS011;8384;47.996;7.786;2023-07-13T14:45:43;3.37;;;1.37;;
16543;SDS011;8384;47.996;7.786;2023-07-13T14:48:18;2.33;;;1.60;;
16543;SDS011;8384;47.996;7.786;2023-07-13T14:50:49;1.93;;;1.33;;
16543;SDS011;8384;47.996;7.786;2023-07-13T14:53:18;1.63;;;1.27;;
16543;SDS011;8384;47.996;7.786;2023-07-13T14:55:44;2.13;;;1.50;;
16543;SDS011;8384;47.996;7.786;2023-07-13T14:58:09;4.33;;;1.33;;
16543;SDS011;8384;47.996;7.786;2023-07-13T15:00:35;3.27;;;1.60;;
16543;SDS011;8384;47.996;7.786;2023-07-13T15:03:02;2.97;;;1.30;;
16543;SDS011;8384;47.996;7.786;2023-07-13T15:05:30;2.27;;;1.23;;
16543;SDS011;8384;47.996;7.786;2023-07-13T15:08:00;3.63;;;1.40;;
16543;SDS011;8384;47.996;7.786;2023-07-13T15:10:28;3.27;;;1.30;;
16543;SDS011;8384;47.996;7.786;2023-07-13T15:13:00;2.10;;;1.23;;
16543;SDS011;8384;47.996;7.786;2023-07-13T15:15:37;1.43;;;1.20;;
16543;SDS011;8384;47.996;7.786;2023-07-13T15:18:05;3.70;;;1.20;;
16543;SDS011;8384;47.996;7.786;2023-07-13T15:20:31;1.93;;;1.10;;
16543;SDS011;8384;47.996;7.786;2023-07-13T15:22:59;4.07;;;1.47;;
16543;SDS011;8384;47.996;7.786;2023-07-13T15:25:25;3.23;;;1.33;;
16543;SDS011;8384;47.996;7.786;2023-07-13T15:27:53;2.47;;;1.20;;
16543;SDS011;8384;47.996;7.786;2023-07-13T15:30:20;1.47;;;1.17;;
16543;SDS011;8384;47.996;7.786;2023-07-13T15:32:46;4.17;;;1.27;;
16543;SDS011;8384;47.996;7.786;2023-07-13T15:37:41;3.83;;;1.17;;
16543;SDS011;8384;47.996;7.786;2023-07-13T15:40:07;2.00;;;1.47;;
16543;SDS011;8384;47.996;7.786;2023-07-13T15:42:33;1.50;;;1.10;;
16543;SDS011;8384;47.996;7.786;2023-07-13T15:45:01;6.83;;;1.70;;
16543;SDS011;8384;47.996;7.786;2023-07-13T15:47:27;6.17;;;1.33;;
16543;SDS011;8384;47.996;7.786;2023-07-13T15:49:52;1.47;;;1.20;;
16543;SDS011;8384;47.996;7.786;2023-07-13T15:52:17;1.50;;;1.20;;
16543;SDS011;8384;47.996;7.786;2023-07-13T15:54:46;2.10;;;1.30;;
16543;SDS011;8384;47.996;7.786;2023-07-13T15:57:12;2.30;;;1.33;;
16543;SDS011;8384;47.996;7.786;2023-07-13T15:59:38;3.20;;;1.23;;
16543;SDS011;8384;47.996;7.786;2023-07-13T16:02:22;2.33;;;1.30;;
16543;SDS011;8384;47.996;7.786;2023-07-13T16:04:47;3.67;;;1.53;;